sensor_id;sensor_type;location;lat;lon;timestamp;P1;durP1;ratioP1;P2;durP2;ratioP2
52414;SDS011;38340;52.964;6.086;2022-11-18T00:02:07;15.63;;;11.27;;
52414;SDS011;38340;52.964;6.086;2022-11-18T00:04:32;15.35;;;11.77;;
52414;SDS011;38340;52.964;6.086;2022-11-18T00:06:58;17.65;;;12.18;;
52414;SDS011;38340;52.964;6.086;2022-11-18T00:09:24;22.75;;;12.45;;
52414;SDS011;38340;52.964;6.086;2022-11-18T00:11:49;14.05;;;11.38;;
52414;SDS011;38340;52.964;6.086;2022-11-18T00:14:34;16.58;;;12.70;;
52414;SDS011;38340;52.964;6.086;2022-11-18T00:17:01;20.73;;;13.15;;
52414;SDS011;38340;52.964;6.086;2022-11-18T00:19:29;17.15;;;12.93;;
52414;SDS011;38340;52.964;6.086;2022-11-18T00:21:59;16.17;;;11.30;;
52414;SDS011;38340;52.964;6.086;2022-11-18T00:24:26;17.58;;;12.88;;
52414;SDS011;38340;52.964;6.086;2022-11-18T00:26:52;18.17;;;13.05;;
52414;SDS011;38340;52.964;6.086;2022-11-18T00:29:19;18.27;;;12.93;;
52414;SDS011;38340;52.964;6.086;2022-11-18T00:31:45;16.92;;;12.27;;
52414;SDS011;38340;52.964;6.086;2022-11-18T00:34:12;22.98;;;12.90;;
52414;SDS011;38340;52.964;6.086;2022-11-18T00:36:39;18.38;;;13.13;;
52414;SDS011;38340;52.964;6.086;2022-11-18T00:39:06;17.25;;;13.55;;
52414;SDS011;38340;52.964;6.086;2022-11-18T00:41:32;36.30;;;15.80;;
52414;SDS011;38340;52.964;6.086;2022-11-18T00:44:16;17.70;;;12.98;;
52414;SDS011;38340;52.964;6.086;2022-11-18T00:46:42;18.48;;;12.38;;
52414;SDS011;38340;52.964;6.086;2022-11-18T00:49:08;18.00;;;12.70;;
52414;SDS011;38340;52.964;6.086;2022-11-18T00:51:34;18.10;;;13.73;;
52414;SDS011;38340;52.964;6.086;2022-11-18T00:54:00;18.25;;;13.50;;
52414;SDS011;38340;52.964;6.086;2022-11-18T00:56:26;18.63;;;13.32;;
52414;SDS011;38340;52.964;6.086;2022-11-18T00:58:52;19.17;;;13.60;;
52414;SDS011;38340;52.964;6.086;2022-11-18T01:01:17;15.98;;;12.88;;
52414;SDS011;38340;52.964;6.086;2022-11-18T01:03:43;17.65;;;13.55;;
52414;SDS011;38340;52.964;6.086;2022-11-18T01:06:09;20.42;;;13.93;;
52414;SDS011;38340;52.964;6.086;2022-11-18T01:08:34;17.33;;;13.65;;
52414;SDS011;38340;52.964;6.086;2022-11-18T01:11:00;19.58;;;14.32;;
52414;SDS011;38340;52.964;6.086;2022-11-18T01:13:44;22.45;;;15.43;;
52414;SDS011;38340;52.964;6.086;2022-11-18T01:16:16;22.95;;;17.15;;
52414;SDS011;38340;52.964;6.086;2022-11-18T01:18:43;24.27;;;16.85;;
52414;SDS011;38340;52.964;6.086;2022-11-18T01:21:09;26.20;;;17.23;;
52414;SDS011;38340;52.964;6.086;2022-11-18T01:23:35;24.23;;;17.58;;
52414;SDS011;38340;52.964;6.086;2022-11-18T01:26:03;26.23;;;17.50;;
52414;SDS011;38340;52.964;6.086;2022-11-18T01:28:30;24.17;;;18.02;;
52414;SDS011;38340;52.964;6.086;2022-11-18T01:31:02;27.38;;;19.13;;
52414;SDS011;38340;52.964;6.086;2022-11-18T01:33:32;29.50;;;19.05;;
52414;SDS011;38340;52.964;6.086;2022-11-18T01:35:58;32.40;;;19.65;;
52414;SDS011;38340;52.964;6.086;2022-11-18T01:38:24;28.40;;;19.38;;
52414;SDS011;38340;52.964;6.086;2022-11-18T01:40:49;27.70;;;18.60;;
52414;SDS011;38340;52.964;6.086;2022-11-18T01:43:16;31.45;;;20.60;;
52414;SDS011;38340;52.964;6.086;2022-11-18T01:45:45;33.97;;;20.73;;
52414;SDS011;38340;52.964;6.086;2022-11-18T01:48:13;32.88;;;21.90;;
52414;SDS011;38340;52.964;6.086;2022-11-18T01:50:48;35.20;;;21.30;;
52414;SDS011;38340;52.964;6.086;2022-11-18T01:53:21;34.17;;;22.00;;
52414;SDS011;38340;52.964;6.086;2022-11-18T01:55:51;39.95;;;22.67;;
52414;SDS011;38340;52.964;6.086;2022-11-18T01:58:21;33.65;;;22.05;;
52414;SDS011;38340;52.964;6.086;2022-11-18T02:00:51;41.08;;;23.40;;
52414;SDS011;38340;52.964;6.086;2022-11-18T02:03:17;40.80;;;23.75;;
52414;SDS011;38340;52.964;6.086;2022-11-18T02:05:45;39.80;;;22.88;;
52414;SDS011;38340;52.964;6.086;2022-11-18T02:08:13;40.22;;;24.48;;
52414;SDS011;38340;52.964;6.086;2022-11-18T02:10:39;42.65;;;24.20;;
52414;SDS011;38340;52.964;6.086;2022-11-18T02:13:05;43.72;;;25.15;;
52414;SDS011;38340;52.964;6.086;2022-11-18T02:24:33;41.88;;;24.30;;
52414;SDS011;38340;52.964;6.086;2022-11-18T02:30:13;42.10;;;24.00;;
52414;SDS011;38340;52.964;6.086;2022-11-18T02:32:42;39.53;;;24.55;;
52414;SDS011;38340;52.964;6.086;2022-11-18T02:35:17;42.83;;;25.17;;
52414;SDS011;38340;52.964;6.086;2022-11-18T02:37:53;42.08;;;26.08;;
52414;SDS011;38340;52.964;6.086;2022-11-18T02:40:24;45.03;;;24.27;;
52414;SDS011;38340;52.964;6.086;2022-11-18T02:42:57;46.38;;;24.17;;
52414;SDS011;38340;52.964;6.086;2022-11-18T02:45:28;44.72;;;25.42;;
52414;SDS011;38340;52.964;6.086;2022-11-18T02:47:55;49.25;;;24.98;;
52414;SDS011;38340;52.964;6.086;2022-11-18T02:50:26;42.63;;;24.92;;
52414;SDS011;38340;52.964;6.086;2022-11-18T02:52:56;41.42;;;24.70;;
52414;SDS011;38340;52.964;6.086;2022-11-18T02:55:24;44.92;;;26.48;;
52414;SDS011;38340;52.964;6.086;2022-11-18T02:57:53;44.85;;;25.45;;
52414;SDS011;38340;52.964;6.086;2022-11-18T03:00:20;44.83;;;24.77;;
52414;SDS011;38340;52.964;6.086;2022-11-18T03:02:47;43.33;;;25.80;;
52414;SDS011;38340;52.964;6.086;2022-11-18T03:05:18;41.80;;;24.30;;
52414;SDS011;38340;52.964;6.086;2022-11-18T03:08:11;41.85;;;24.58;;
52414;SDS011;38340;52.964;6.086;2022-11-18T03:10:42;41.45;;;26.33;;
52414;SDS011;38340;52.964;6.086;2022-11-18T03:13:22;44.65;;;25.95;;
52414;SDS011;38340;52.964;6.086;2022-11-18T03:16:06;45.40;;;25.67;;
52414;SDS011;38340;52.964;6.086;2022-11-18T03:18:39;41.15;;;23.85;;
52414;SDS011;38340;52.964;6.086;2022-11-18T03:21:22;40.93;;;24.97;;
52414;SDS011;38340;52.964;6.086;2022-11-18T03:24:12;43.08;;;24.40;;
52414;SDS011;38340;52.964;6.086;2022-11-18T03:26:47;41.70;;;25.65;;
52414;SDS011;38340;52.964;6.086;2022-11-18T03:29:20;41.03;;;25.33;;
52414;SDS011;38340;52.964;6.086;2022-11-18T03:31:54;43.60;;;25.77;;
52414;SDS011;38340;52.964;6.086;2022-11-18T03:34:43;47.38;;;25.75;;
52414;SDS011;38340;52.964;6.086;2022-11-18T03:37:16;44.15;;;26.25;;
52414;SDS011;38340;52.964;6.086;2022-11-18T03:39:48;46.38;;;25.90;;
52414;SDS011;38340;52.964;6.086;2022-11-18T03:44:48;44.70;;;25.65;;
52414;SDS011;38340;52.964;6.086;2022-11-18T03:47:18;41.08;;;23.90;;
52414;SDS011;38340;52.964;6.086;2022-11-18T03:49:54;41.92;;;25.05;;
52414;SDS011;38340;52.964;6.086;2022-11-18T03:52:25;42.75;;;25.48;;
52414;SDS011;38340;52.964;6.086;2022-11-18T03:54:55;41.60;;;24.50;;
52414;SDS011;38340;52.964;6.086;2022-11-18T03:57:41;42.95;;;24.65;;
52414;SDS011;38340;52.964;6.086;2022-11-18T04:00:12;40.25;;;25.40;;
52414;SDS011;38340;52.964;6.086;2022-11-18T04:02:39;43.38;;;25.05;;
52414;SDS011;38340;52.964;6.086;2022-11-18T04:05:06;41.70;;;24.70;;
52414;SDS011;38340;52.964;6.086;2022-11-18T04:15:47;43.35;;;24.35;;
52414;SDS011;38340;52.964;6.086;2022-11-18T04:18:13;40.65;;;24.25;;
52414;SDS011;38340;52.964;6.086;2022-11-18T04:20:38;38.47;;;23.77;;
52414;SDS011;38340;52.964;6.086;2022-11-18T04:23:05;41.85;;;25.00;;
52414;SDS011;38340;52.964;6.086;2022-11-18T04:25:31;42.72;;;24.60;;
52414;SDS011;38340;52.964;6.086;2022-11-18T04:27:57;35.75;;;23.50;;
52414;SDS011;38340;52.964;6.086;2022-11-18T04:30:23;42.35;;;24.33;;
52414;SDS011;38340;52.964;6.086;2022-11-18T04:32:49;40.75;;;23.90;;
52414;SDS011;38340;52.964;6.086;2022-11-18T04:35:14;43.08;;;24.90;;
52414;SDS011;38340;52.964;6.086;2022-11-18T04:37:40;109.68;;;30.27;;
52414;SDS011;38340;52.964;6.086;2022-11-18T04:40:06;94.10;;;29.58;;
52414;SDS011;38340;52.964;6.086;2022-11-18T04:42:32;99.55;;;28.10;;
52414;SDS011;38340;52.964;6.086;2022-11-18T04:44:58;222.77;;;37.50;;
52414;SDS011;38340;52.964;6.086;2022-11-18T04:47:24;201.65;;;38.55;;
52414;SDS011;38340;52.964;6.086;2022-11-18T04:49:49;184.88;;;37.38;;
52414;SDS011;38340;52.964;6.086;2022-11-18T04:52:15;229.50;;;39.60;;
52414;SDS011;38340;52.964;6.086;2022-11-18T04:54:41;62.25;;;25.55;;
52414;SDS011;38340;52.964;6.086;2022-11-18T04:57:07;62.30;;;26.92;;
52414;SDS011;38340;52.964;6.086;2022-11-18T04:59:33;119.35;;;31.38;;
52414;SDS011;38340;52.964;6.086;2022-11-18T05:01:59;50.78;;;24.67;;
52414;SDS011;38340;52.964;6.086;2022-11-18T05:04:29;45.20;;;22.45;;
52414;SDS011;38340;52.964;6.086;2022-11-18T05:06:56;113.80;;;28.30;;
52414;SDS011;38340;52.964;6.086;2022-11-18T05:09:24;114.28;;;29.42;;
52414;SDS011;38340;52.964;6.086;2022-11-18T05:11:50;59.45;;;24.75;;
52414;SDS011;38340;52.964;6.086;2022-11-18T05:14:34;55.88;;;24.40;;
52414;SDS011;38340;52.964;6.086;2022-11-18T05:17:00;58.88;;;24.55;;
52414;SDS011;38340;52.964;6.086;2022-11-18T05:19:27;90.15;;;28.02;;
52414;SDS011;38340;52.964;6.086;2022-11-18T05:21:53;42.63;;;25.92;;
52414;SDS011;38340;52.964;6.086;2022-11-18T05:24:19;34.45;;;23.13;;
52414;SDS011;38340;52.964;6.086;2022-11-18T05:26:45;109.70;;;30.00;;
52414;SDS011;38340;52.964;6.086;2022-11-18T05:29:11;52.58;;;24.38;;
52414;SDS011;38340;52.964;6.086;2022-11-18T05:31:37;37.67;;;22.85;;
52414;SDS011;38340;52.964;6.086;2022-11-18T05:34:02;70.00;;;27.00;;
52414;SDS011;38340;52.964;6.086;2022-11-18T05:36:28;94.65;;;27.80;;
52414;SDS011;38340;52.964;6.086;2022-11-18T05:38:56;49.78;;;24.88;;
52414;SDS011;38340;52.964;6.086;2022-11-18T05:41:23;79.45;;;28.45;;
52414;SDS011;38340;52.964;6.086;2022-11-18T05:44:07;115.28;;;30.88;;
52414;SDS011;38340;52.964;6.086;2022-11-18T05:46:33;93.03;;;27.73;;
52414;SDS011;38340;52.964;6.086;2022-11-18T05:48:58;218.05;;;37.67;;
52414;SDS011;38340;52.964;6.086;2022-11-18T05:51:24;145.15;;;31.85;;
52414;SDS011;38340;52.964;6.086;2022-11-18T05:53:50;336.70;;;48.33;;
52414;SDS011;38340;52.964;6.086;2022-11-18T05:59:15;47.85;;;24.00;;
52414;SDS011;38340;52.964;6.086;2022-11-18T06:04:56;75.57;;;27.02;;
52414;SDS011;38340;52.964;6.086;2022-11-18T06:07:01;61.15;;;23.98;;
52414;SDS011;38340;52.964;6.086;2022-11-18T06:09:31;143.23;;;30.83;;
52414;SDS011;38340;52.964;6.086;2022-11-18T06:12:01;69.70;;;25.05;;
52414;SDS011;38340;52.964;6.086;2022-11-18T06:14:36;129.38;;;31.15;;
52414;SDS011;38340;52.964;6.086;2022-11-18T06:17:09;42.60;;;23.05;;
52414;SDS011;38340;52.964;6.086;2022-11-18T06:19:40;40.28;;;22.45;;
52414;SDS011;38340;52.964;6.086;2022-11-18T06:22:06;36.42;;;22.95;;
52414;SDS011;38340;52.964;6.086;2022-11-18T06:24:33;40.38;;;23.42;;
52414;SDS011;38340;52.964;6.086;2022-11-18T06:26:59;37.05;;;22.92;;
52414;SDS011;38340;52.964;6.086;2022-11-18T06:29:25;50.80;;;23.88;;
52414;SDS011;38340;52.964;6.086;2022-11-18T06:31:51;77.35;;;25.90;;
52414;SDS011;38340;52.964;6.086;2022-11-18T06:34:17;36.60;;;22.15;;
52414;SDS011;38340;52.964;6.086;2022-11-18T06:36:43;36.90;;;22.88;;
52414;SDS011;38340;52.964;6.086;2022-11-18T06:39:08;38.80;;;24.08;;
52414;SDS011;38340;52.964;6.086;2022-11-18T06:41:34;78.38;;;24.65;;
52414;SDS011;38340;52.964;6.086;2022-11-18T06:44:00;35.95;;;21.25;;
52414;SDS011;38340;52.964;6.086;2022-11-18T06:46:25;40.13;;;22.58;;
52414;SDS011;38340;52.964;6.086;2022-11-18T06:49:09;38.85;;;22.00;;
52414;SDS011;38340;52.964;6.086;2022-11-18T06:51:36;51.05;;;22.25;;
52414;SDS011;38340;52.964;6.086;2022-11-18T06:54:03;40.22;;;21.83;;
52414;SDS011;38340;52.964;6.086;2022-11-18T06:56:28;35.90;;;20.67;;
52414;SDS011;38340;52.964;6.086;2022-11-18T06:58:55;39.78;;;21.42;;
52414;SDS011;38340;52.964;6.086;2022-11-18T07:01:23;34.90;;;20.00;;
52414;SDS011;38340;52.964;6.086;2022-11-18T07:03:50;35.47;;;20.60;;
52414;SDS011;38340;52.964;6.086;2022-11-18T07:06:18;36.08;;;20.73;;
52414;SDS011;38340;52.964;6.086;2022-11-18T07:08:46;38.42;;;21.48;;
52414;SDS011;38340;52.964;6.086;2022-11-18T07:11:13;37.83;;;20.30;;
52414;SDS011;38340;52.964;6.086;2022-11-18T07:13:41;39.33;;;21.27;;
52414;SDS011;38340;52.964;6.086;2022-11-18T07:18:35;46.05;;;23.38;;
52414;SDS011;38340;52.964;6.086;2022-11-18T07:21:02;36.58;;;20.90;;
52414;SDS011;38340;52.964;6.086;2022-11-18T07:23:30;37.83;;;21.98;;
52414;SDS011;38340;52.964;6.086;2022-11-18T07:25:56;35.30;;;20.75;;
52414;SDS011;38340;52.964;6.086;2022-11-18T07:28:22;40.42;;;23.02;;
52414;SDS011;38340;52.964;6.086;2022-11-18T07:30:48;36.70;;;21.40;;
52414;SDS011;38340;52.964;6.086;2022-11-18T07:33:14;68.65;;;23.75;;
52414;SDS011;38340;52.964;6.086;2022-11-18T07:35:39;43.25;;;20.80;;
52414;SDS011;38340;52.964;6.086;2022-11-18T07:38:05;43.08;;;21.42;;
52414;SDS011;38340;52.964;6.086;2022-11-18T07:40:31;52.60;;;23.20;;
52414;SDS011;38340;52.964;6.086;2022-11-18T07:42:56;36.17;;;20.65;;
52414;SDS011;38340;52.964;6.086;2022-11-18T07:45:22;35.53;;;21.98;;
52414;SDS011;38340;52.964;6.086;2022-11-18T07:47:48;31.33;;;19.70;;
52414;SDS011;38340;52.964;6.086;2022-11-18T07:50:15;52.50;;;21.25;;
52414;SDS011;38340;52.964;6.086;2022-11-18T07:52:41;35.70;;;20.65;;
52414;SDS011;38340;52.964;6.086;2022-11-18T07:55:07;308.73;;;44.22;;
52414;SDS011;38340;52.964;6.086;2022-11-18T07:57:33;45.90;;;20.10;;
52414;SDS011;38340;52.964;6.086;2022-11-18T07:59:58;34.20;;;18.92;;
52414;SDS011;38340;52.964;6.086;2022-11-18T08:02:24;38.80;;;18.67;;
52414;SDS011;38340;52.964;6.086;2022-11-18T08:04:50;55.60;;;19.73;;
52414;SDS011;38340;52.964;6.086;2022-11-18T08:07:15;38.88;;;17.33;;
52414;SDS011;38340;52.964;6.086;2022-11-18T08:09:41;43.78;;;16.83;;
52414;SDS011;38340;52.964;6.086;2022-11-18T08:12:07;24.77;;;15.30;;
52414;SDS011;38340;52.964;6.086;2022-11-18T08:14:32;24.13;;;14.48;;
52414;SDS011;38340;52.964;6.086;2022-11-18T08:16:58;29.92;;;14.95;;
52414;SDS011;38340;52.964;6.086;2022-11-18T08:19:24;43.92;;;16.58;;
52414;SDS011;38340;52.964;6.086;2022-11-18T08:21:49;21.33;;;14.25;;
52414;SDS011;38340;52.964;6.086;2022-11-18T08:24:15;297.73;;;45.17;;
52414;SDS011;38340;52.964;6.086;2022-11-18T08:26:41;25.92;;;14.00;;
52414;SDS011;38340;52.964;6.086;2022-11-18T08:29:07;22.65;;;13.90;;
52414;SDS011;38340;52.964;6.086;2022-11-18T08:31:32;27.02;;;14.05;;
52414;SDS011;38340;52.964;6.086;2022-11-18T08:36:26;21.85;;;14.23;;
52414;SDS011;38340;52.964;6.086;2022-11-18T08:38:54;23.73;;;14.30;;
52414;SDS011;38340;52.964;6.086;2022-11-18T08:41:31;24.55;;;13.35;;
52414;SDS011;38340;52.964;6.086;2022-11-18T08:44:00;23.20;;;14.38;;
52414;SDS011;38340;52.964;6.086;2022-11-18T08:46:26;21.17;;;12.45;;
52414;SDS011;38340;52.964;6.086;2022-11-18T08:48:52;22.52;;;13.13;;
52414;SDS011;38340;52.964;6.086;2022-11-18T08:51:18;27.35;;;13.43;;
52414;SDS011;38340;52.964;6.086;2022-11-18T08:53:43;26.00;;;13.10;;
52414;SDS011;38340;52.964;6.086;2022-11-18T08:56:13;22.60;;;12.68;;
52414;SDS011;38340;52.964;6.086;2022-11-18T08:58:40;24.30;;;14.50;;
52414;SDS011;38340;52.964;6.086;2022-11-18T09:01:07;21.35;;;13.57;;
52414;SDS011;38340;52.964;6.086;2022-11-18T09:03:33;31.55;;;14.77;;
52414;SDS011;38340;52.964;6.086;2022-11-18T09:08:31;24.05;;;13.35;;
52414;SDS011;38340;52.964;6.086;2022-11-18T09:10:57;27.55;;;14.25;;
52414;SDS011;38340;52.964;6.086;2022-11-18T09:13:22;22.60;;;13.75;;
52414;SDS011;38340;52.964;6.086;2022-11-18T09:15:48;27.70;;;15.23;;
52414;SDS011;38340;52.964;6.086;2022-11-18T09:18:14;26.15;;;14.80;;
52414;SDS011;38340;52.964;6.086;2022-11-18T09:20:39;25.83;;;15.68;;
52414;SDS011;38340;52.964;6.086;2022-11-18T09:23:05;25.75;;;15.73;;
52414;SDS011;38340;52.964;6.086;2022-11-18T09:25:32;26.48;;;14.77;;
52414;SDS011;38340;52.964;6.086;2022-11-18T09:27:57;25.10;;;14.98;;
52414;SDS011;38340;52.964;6.086;2022-11-18T09:30:23;23.35;;;14.45;;
52414;SDS011;38340;52.964;6.086;2022-11-18T09:32:49;28.55;;;15.48;;
52414;SDS011;38340;52.964;6.086;2022-11-18T09:35:14;25.73;;;14.68;;
52414;SDS011;38340;52.964;6.086;2022-11-18T09:37:40;22.63;;;13.50;;
52414;SDS011;38340;52.964;6.086;2022-11-18T09:40:08;24.80;;;14.38;;
52414;SDS011;38340;52.964;6.086;2022-11-18T09:45:43;46.20;;;14.82;;
52414;SDS011;38340;52.964;6.086;2022-11-18T09:48:20;24.58;;;14.23;;
52414;SDS011;38340;52.964;6.086;2022-11-18T09:51:08;29.67;;;15.23;;
52414;SDS011;38340;52.964;6.086;2022-11-18T09:53:35;26.02;;;14.35;;
52414;SDS011;38340;52.964;6.086;2022-11-18T09:56:08;23.70;;;14.00;;
52414;SDS011;38340;52.964;6.086;2022-11-18T09:58:39;20.98;;;13.40;;
52414;SDS011;38340;52.964;6.086;2022-11-18T10:01:12;21.52;;;13.38;;
52414;SDS011;38340;52.964;6.086;2022-11-18T10:03:41;20.95;;;13.00;;
52414;SDS011;38340;52.964;6.086;2022-11-18T10:08:39;22.55;;;13.50;;
52414;SDS011;38340;52.964;6.086;2022-11-18T10:11:18;22.13;;;13.07;;
52414;SDS011;38340;52.964;6.086;2022-11-18T10:25:27;18.90;;;12.82;;
52414;SDS011;38340;52.964;6.086;2022-11-18T10:27:53;20.20;;;11.68;;
52414;SDS011;38340;52.964;6.086;2022-11-18T10:30:22;22.70;;;12.38;;
52414;SDS011;38340;52.964;6.086;2022-11-18T10:33:00;17.08;;;11.15;;
52414;SDS011;38340;52.964;6.086;2022-11-18T10:38:05;20.45;;;11.70;;
52414;SDS011;38340;52.964;6.086;2022-11-18T10:40:39;25.85;;;11.98;;
52414;SDS011;38340;52.964;6.086;2022-11-18T10:46:14;19.33;;;12.25;;
52414;SDS011;38340;52.964;6.086;2022-11-18T10:48:42;21.15;;;12.75;;
52414;SDS011;38340;52.964;6.086;2022-11-18T10:51:22;20.52;;;11.48;;
52414;SDS011;38340;52.964;6.086;2022-11-18T10:53:49;18.65;;;11.13;;
52414;SDS011;38340;52.964;6.086;2022-11-18T10:56:15;24.92;;;12.60;;
52414;SDS011;38340;52.964;6.086;2022-11-18T10:58:42;22.65;;;11.27;;
52414;SDS011;38340;52.964;6.086;2022-11-18T11:01:20;22.77;;;12.52;;
52414;SDS011;38340;52.964;6.086;2022-11-18T11:03:51;24.65;;;12.80;;
52414;SDS011;38340;52.964;6.086;2022-11-18T11:06:31;20.85;;;11.27;;
52414;SDS011;38340;52.964;6.086;2022-11-18T11:11:35;20.13;;;12.27;;
52414;SDS011;38340;52.964;6.086;2022-11-18T11:16:58;111.07;;;20.67;;
52414;SDS011;38340;52.964;6.086;2022-11-18T11:19:41;18.95;;;12.15;;
52414;SDS011;38340;52.964;6.086;2022-11-18T11:22:14;19.02;;;12.57;;
52414;SDS011;38340;52.964;6.086;2022-11-18T11:24:40;23.20;;;11.98;;
52414;SDS011;38340;52.964;6.086;2022-11-18T11:27:20;20.73;;;11.73;;
52414;SDS011;38340;52.964;6.086;2022-11-18T11:32:35;18.67;;;10.48;;
52414;SDS011;38340;52.964;6.086;2022-11-18T11:48:51;13.40;;;8.35;;
52414;SDS011;38340;52.964;6.086;2022-11-18T11:51:38;13.15;;;8.35;;
52414;SDS011;38340;52.964;6.086;2022-11-18T11:57:10;16.65;;;9.10;;
52414;SDS011;38340;52.964;6.086;2022-11-18T11:59:45;16.00;;;8.95;;
52414;SDS011;38340;52.964;6.086;2022-11-18T12:07:58;15.98;;;9.45;;
52414;SDS011;38340;52.964;6.086;2022-11-18T12:13:24;17.83;;;10.85;;
52414;SDS011;38340;52.964;6.086;2022-11-18T12:16:10;16.95;;;9.52;;
52414;SDS011;38340;52.964;6.086;2022-11-18T12:18:56;14.30;;;9.73;;
52414;SDS011;38340;52.964;6.086;2022-11-18T12:26:49;16.05;;;9.73;;
52414;SDS011;38340;52.964;6.086;2022-11-18T12:34:18;14.25;;;9.52;;
52414;SDS011;38340;52.964;6.086;2022-11-18T12:36:51;16.08;;;9.85;;
52414;SDS011;38340;52.964;6.086;2022-11-18T12:44:40;12.07;;;8.77;;
52414;SDS011;38340;52.964;6.086;2022-11-18T12:47:14;12.32;;;8.43;;
52414;SDS011;38340;52.964;6.086;2022-11-18T12:55:02;15.55;;;7.97;;
52414;SDS011;38340;52.964;6.086;2022-11-18T12:57:40;14.35;;;9.35;;
52414;SDS011;38340;52.964;6.086;2022-11-18T13:00:28;15.45;;;9.00;;
52414;SDS011;38340;52.964;6.086;2022-11-18T13:02:55;15.00;;;9.20;;
52414;SDS011;38340;52.964;6.086;2022-11-18T13:05:32;60.20;;;13.32;;
52414;SDS011;38340;52.964;6.086;2022-11-18T13:08:03;15.13;;;9.60;;
52414;SDS011;38340;52.964;6.086;2022-11-18T13:10:53;36.63;;;10.77;;
52414;SDS011;38340;52.964;6.086;2022-11-18T13:13:42;13.57;;;8.75;;
52414;SDS011;38340;52.964;6.086;2022-11-18T13:16:27;11.40;;;7.88;;
52414;SDS011;38340;52.964;6.086;2022-11-18T13:19:19;15.13;;;8.70;;
52414;SDS011;38340;52.964;6.086;2022-11-18T13:21:51;16.45;;;8.93;;
52414;SDS011;38340;52.964;6.086;2022-11-18T13:24:50;13.23;;;8.88;;
52414;SDS011;38340;52.964;6.086;2022-11-18T13:30:03;16.92;;;9.32;;
52414;SDS011;38340;52.964;6.086;2022-11-18T13:32:34;14.10;;;9.50;;
52414;SDS011;38340;52.964;6.086;2022-11-18T13:35:09;16.58;;;9.50;;
52414;SDS011;38340;52.964;6.086;2022-11-18T13:37:36;15.63;;;9.77;;
52414;SDS011;38340;52.964;6.086;2022-11-18T13:40:20;17.42;;;10.27;;
52414;SDS011;38340;52.964;6.086;2022-11-18T13:42:48;15.00;;;9.85;;
52414;SDS011;38340;52.964;6.086;2022-11-18T13:45:14;15.02;;;9.60;;
52414;SDS011;38340;52.964;6.086;2022-11-18T13:47:54;14.77;;;9.05;;
52414;SDS011;38340;52.964;6.086;2022-11-18T13:50:37;15.32;;;9.43;;
52414;SDS011;38340;52.964;6.086;2022-11-18T13:53:18;15.55;;;8.88;;
52414;SDS011;38340;52.964;6.086;2022-11-18T13:56:04;17.52;;;9.57;;
52414;SDS011;38340;52.964;6.086;2022-11-18T13:58:42;18.55;;;9.75;;
52414;SDS011;38340;52.964;6.086;2022-11-18T14:07:14;16.50;;;9.32;;
52414;SDS011;38340;52.964;6.086;2022-11-18T14:10:06;15.93;;;9.85;;
52414;SDS011;38340;52.964;6.086;2022-11-18T14:12:35;30.67;;;10.65;;
52414;SDS011;38340;52.964;6.086;2022-11-18T14:15:14;16.15;;;9.88;;
52414;SDS011;38340;52.964;6.086;2022-11-18T14:17:59;15.77;;;10.15;;
52414;SDS011;38340;52.964;6.086;2022-11-18T14:20:26;14.30;;;8.77;;
52414;SDS011;38340;52.964;6.086;2022-11-18T14:22:55;17.08;;;9.40;;
52414;SDS011;38340;52.964;6.086;2022-11-18T14:25:27;16.60;;;8.90;;
52414;SDS011;38340;52.964;6.086;2022-11-18T14:28:41;14.20;;;8.85;;
52414;SDS011;38340;52.964;6.086;2022-11-18T14:31:01;14.52;;;8.95;;
52414;SDS011;38340;52.964;6.086;2022-11-18T14:33:33;17.13;;;9.85;;
52414;SDS011;38340;52.964;6.086;2022-11-18T14:36:01;16.67;;;10.10;;
52414;SDS011;38340;52.964;6.086;2022-11-18T14:41:06;19.33;;;10.13;;
52414;SDS011;38340;52.964;6.086;2022-11-18T14:43:33;17.55;;;10.57;;
52414;SDS011;38340;52.964;6.086;2022-11-18T14:46:03;17.45;;;10.27;;
52414;SDS011;38340;52.964;6.086;2022-11-18T14:48:31;16.67;;;10.10;;
52414;SDS011;38340;52.964;6.086;2022-11-18T14:50:57;16.55;;;9.70;;
52414;SDS011;38340;52.964;6.086;2022-11-18T14:53:23;20.42;;;10.57;;
52414;SDS011;38340;52.964;6.086;2022-11-18T14:55:50;43.90;;;13.32;;
52414;SDS011;38340;52.964;6.086;2022-11-18T14:58:18;22.90;;;11.93;;
52414;SDS011;38340;52.964;6.086;2022-11-18T15:00:45;20.25;;;11.85;;
52414;SDS011;38340;52.964;6.086;2022-11-18T15:03:11;21.92;;;12.52;;
52414;SDS011;38340;52.964;6.086;2022-11-18T15:05:37;21.02;;;12.32;;
52414;SDS011;38340;52.964;6.086;2022-11-18T15:08:04;20.50;;;12.25;;
52414;SDS011;38340;52.964;6.086;2022-11-18T15:10:30;21.13;;;12.13;;
52414;SDS011;38340;52.964;6.086;2022-11-18T15:12:56;20.50;;;11.73;;
52414;SDS011;38340;52.964;6.086;2022-11-18T15:15:22;27.05;;;10.98;;
52414;SDS011;38340;52.964;6.086;2022-11-18T15:17:48;21.00;;;10.48;;
52414;SDS011;38340;52.964;6.086;2022-11-18T15:20:15;22.33;;;10.57;;
52414;SDS011;38340;52.964;6.086;2022-11-18T15:22:42;18.77;;;11.18;;
52414;SDS011;38340;52.964;6.086;2022-11-18T15:25:08;18.20;;;10.30;;
52414;SDS011;38340;52.964;6.086;2022-11-18T15:27:34;20.55;;;10.50;;
52414;SDS011;38340;52.964;6.086;2022-11-18T15:30:01;18.90;;;11.07;;
52414;SDS011;38340;52.964;6.086;2022-11-18T15:32:27;19.38;;;10.98;;
52414;SDS011;38340;52.964;6.086;2022-11-18T15:34:53;18.88;;;11.20;;
52414;SDS011;38340;52.964;6.086;2022-11-18T15:37:19;17.25;;;10.73;;
52414;SDS011;38340;52.964;6.086;2022-11-18T15:39:44;23.73;;;12.98;;
52414;SDS011;38340;52.964;6.086;2022-11-18T15:42:14;19.42;;;11.35;;
52414;SDS011;38340;52.964;6.086;2022-11-18T15:44:43;24.95;;;12.35;;
52414;SDS011;38340;52.964;6.086;2022-11-18T15:47:09;21.42;;;12.02;;
52414;SDS011;38340;52.964;6.086;2022-11-18T15:49:35;19.10;;;11.60;;
52414;SDS011;38340;52.964;6.086;2022-11-18T15:52:01;17.95;;;10.55;;
52414;SDS011;38340;52.964;6.086;2022-11-18T15:54:26;17.92;;;9.80;;
52414;SDS011;38340;52.964;6.086;2022-11-18T15:56:52;24.60;;;11.88;;
52414;SDS011;38340;52.964;6.086;2022-11-18T15:59:18;18.48;;;11.07;;
52414;SDS011;38340;52.964;6.086;2022-11-18T16:01:45;20.60;;;11.63;;
52414;SDS011;38340;52.964;6.086;2022-11-18T16:04:13;19.80;;;11.75;;
52414;SDS011;38340;52.964;6.086;2022-11-18T16:06:41;20.25;;;10.70;;
52414;SDS011;38340;52.964;6.086;2022-11-18T16:09:09;20.58;;;11.45;;
52414;SDS011;38340;52.964;6.086;2022-11-18T16:11:36;18.30;;;11.40;;
52414;SDS011;38340;52.964;6.086;2022-11-18T16:14:21;19.15;;;10.70;;
52414;SDS011;38340;52.964;6.086;2022-11-18T16:16:49;18.90;;;11.82;;
52414;SDS011;38340;52.964;6.086;2022-11-18T16:19:17;18.75;;;11.82;;
52414;SDS011;38340;52.964;6.086;2022-11-18T16:21:45;18.77;;;10.80;;
52414;SDS011;38340;52.964;6.086;2022-11-18T16:24:17;17.00;;;9.82;;
52414;SDS011;38340;52.964;6.086;2022-11-18T16:26:45;21.38;;;10.73;;
52414;SDS011;38340;52.964;6.086;2022-11-18T16:29:11;17.98;;;11.10;;
52414;SDS011;38340;52.964;6.086;2022-11-18T16:31:39;17.38;;;10.15;;
52414;SDS011;38340;52.964;6.086;2022-11-18T16:36:45;19.27;;;10.73;;
52414;SDS011;38340;52.964;6.086;2022-11-18T16:39:13;16.50;;;10.35;;
52414;SDS011;38340;52.964;6.086;2022-11-18T16:41:41;15.95;;;9.32;;
52414;SDS011;38340;52.964;6.086;2022-11-18T16:44:09;16.50;;;9.60;;
52414;SDS011;38340;52.964;6.086;2022-11-18T16:46:40;23.70;;;13.70;;